<?xml version="1.0" encoding="UTF-8" standalone="no" ?>
<gpx xmlns="http://www.topografix.com/GPX/1/1" xmlns:xsi="http://www.w3.org/2001/XMLSchema-instance" xsi:schemaLocation="http://www.topografix.com/GPX/1/1 http://www.topografix.com/GPX/1/1/gpx.xsd" version="1.1" creator="VisuGPX - https://www.visugpx.com">
  <metadata>
    <name>SityTrail - Randonnée 12 km Liergues</name>
    <desc><![CDATA[Randonnée sur la commune de Porte-des-Pierres-Dorées dans le Beaujolais]]></desc>
  </metadata>
  <wpt lat="45.97112" lon="4.66353">
    <ele>244</ele>
    <name><![CDATA[Départ/arrivée]]></name>
    <desc><![CDATA[Départ/arrivée salle la Doréenne]]></desc>
    <type><![CDATA[d]]></type>
  </wpt>
  <trk>
    <name><![CDATA[SityTrail - Randonnée 12 km Liergues]]></name>
    <extensions>
      <line xmlns="http://www.topografix.com/GPX/gpx_style/0/2">
        <color>0000ff</color>
        <opacity>0.55</opacity>
        <width>8</width>
      </line>
    </extensions>
    <trkseg>
      <trkpt lat="45.97089" lon="4.66388">
        <ele>243</ele>
        <time>2022-08-22T18:03:49Z</time>
      </trkpt>
      <trkpt lat="45.97188" lon="4.66411">
        <ele>247.9</ele>
      </trkpt>
      <trkpt lat="45.97195" lon="4.66402">
        <ele>248.5</ele>
        <time>2022-08-22T18:06:53Z</time>
      </trkpt>
      <trkpt lat="45.97191" lon="4.66318">
        <ele>246.7</ele>
        <time>2022-08-22T18:12:20Z</time>
      </trkpt>
      <trkpt lat="45.97198" lon="4.66258">
        <ele>247</ele>
        <time>2022-08-22T18:14:34Z</time>
      </trkpt>
      <trkpt lat="45.97192" lon="4.6616">
        <ele>249</ele>
        <time>2022-08-22T18:15:41Z</time>
      </trkpt>
      <trkpt lat="45.97202" lon="4.66094">
        <ele>256</ele>
        <time>2022-08-22T18:16:44Z</time>
      </trkpt>
      <trkpt lat="45.97227" lon="4.6606">
        <ele>257</ele>
        <time>2022-08-22T18:27:18Z</time>
      </trkpt>
      <trkpt lat="45.97231" lon="4.66011">
        <ele>259</ele>
        <time>2022-08-22T18:31:50Z</time>
      </trkpt>
      <trkpt lat="45.9723" lon="4.65994">
        <ele>256.7</ele>
        <time>2022-08-22T18:32:33Z</time>
      </trkpt>
      <trkpt lat="45.9728" lon="4.65981">
        <ele>254.7</ele>
        <time>2022-08-22T18:35:05Z</time>
      </trkpt>
      <trkpt lat="45.97333" lon="4.66017">
        <ele>256.9</ele>
        <time>2022-08-22T18:36:42Z</time>
      </trkpt>
      <trkpt lat="45.97371" lon="4.65909">
        <ele>260.1</ele>
      </trkpt>
      <trkpt lat="45.97403" lon="4.6578">
        <ele>263.5</ele>
      </trkpt>
      <trkpt lat="45.97484" lon="4.65441">
        <ele>272.8</ele>
        <time>2022-08-22T18:37:57Z</time>
      </trkpt>
      <trkpt lat="45.97581" lon="4.65227">
        <ele>279</ele>
        <time>2022-08-22T18:39:43Z</time>
      </trkpt>
      <trkpt lat="45.97564" lon="4.65195">
        <ele>279</ele>
        <time>2022-08-22T18:42:49Z</time>
      </trkpt>
      <trkpt lat="45.97628" lon="4.65073">
        <ele>283.4</ele>
      </trkpt>
      <trkpt lat="45.97628" lon="4.65066">
        <ele>283.6</ele>
        <time>2022-08-22T18:43:57Z</time>
      </trkpt>
      <trkpt lat="45.97545" lon="4.65092">
        <ele>283</ele>
        <time>2022-08-22T18:49:30Z</time>
      </trkpt>
      <trkpt lat="45.97554" lon="4.65011">
        <ele>285</ele>
        <time>2022-08-22T18:51:48Z</time>
      </trkpt>
      <trkpt lat="45.97482" lon="4.64982">
        <ele>286</ele>
        <time>2022-08-22T18:59:21Z</time>
      </trkpt>
      <trkpt lat="45.9751" lon="4.6481">
        <ele>291</ele>
        <time>2022-08-22T19:04:58Z</time>
      </trkpt>
      <trkpt lat="45.97454" lon="4.64789">
        <ele>289</ele>
        <time>2022-08-22T19:07:18Z</time>
      </trkpt>
      <trkpt lat="45.97461" lon="4.64652">
        <ele>295.1</ele>
      </trkpt>
      <trkpt lat="45.97341" lon="4.64602">
        <ele>293.9</ele>
        <time>2022-08-22T19:16:59Z</time>
      </trkpt>
      <trkpt lat="45.97345" lon="4.64475">
        <ele>298</ele>
        <time>2022-08-22T19:23:16Z</time>
      </trkpt>
      <trkpt lat="45.97359" lon="4.64075">
        <ele>310</ele>
        <time>2022-08-22T19:24:39Z</time>
      </trkpt>
      <trkpt lat="45.97238" lon="4.63837">
        <ele>322</ele>
        <time>2022-08-22T19:27:40Z</time>
      </trkpt>
      <trkpt lat="45.97242" lon="4.63699">
        <ele>324</ele>
        <time>2022-08-22T19:34:22Z</time>
      </trkpt>
      <trkpt lat="45.97384" lon="4.63289">
        <ele>345</ele>
        <time>2022-08-22T19:36:41Z</time>
      </trkpt>
      <trkpt lat="45.97343" lon="4.62875">
        <ele>353.5</ele>
        <time>2022-08-22T19:38:50Z</time>
      </trkpt>
      <trkpt lat="45.97297" lon="4.62855">
        <ele>354.2</ele>
        <time>2022-08-22T19:40:38Z</time>
      </trkpt>
      <trkpt lat="45.97226" lon="4.6272">
        <ele>359</ele>
        <time>2022-08-22T19:45:08Z</time>
      </trkpt>
      <trkpt lat="45.97191" lon="4.62602">
        <ele>368.7</ele>
      </trkpt>
      <trkpt lat="45.97178" lon="4.62474">
        <ele>378.9</ele>
      </trkpt>
      <trkpt lat="45.97172" lon="4.62468">
        <ele>379.4</ele>
      </trkpt>
      <trkpt lat="45.9717" lon="4.62467">
        <ele>379.6</ele>
        <time>2022-08-22T19:46:26Z</time>
      </trkpt>
      <trkpt lat="45.97122" lon="4.62532">
        <ele>373.6</ele>
      </trkpt>
      <trkpt lat="45.9707" lon="4.62585">
        <ele>368.9</ele>
        <time>2022-08-22T19:48:13Z</time>
      </trkpt>
      <trkpt lat="45.96977" lon="4.62501">
        <ele>369.3</ele>
      </trkpt>
      <trkpt lat="45.96885" lon="4.62524">
        <ele>357</ele>
        <time>2022-08-22T19:52:34Z</time>
      </trkpt>
      <trkpt lat="45.96824" lon="4.62851">
        <ele>351</ele>
        <time>2022-08-22T19:53:40Z</time>
      </trkpt>
      <trkpt lat="45.96756" lon="4.62835">
        <ele>347.2</ele>
        <time>2022-08-22T19:54:28Z</time>
      </trkpt>
      <trkpt lat="45.96736" lon="4.62971">
        <ele>345</ele>
        <time>2022-08-22T19:54:52Z</time>
      </trkpt>
      <trkpt lat="45.96671" lon="4.62959">
        <ele>340.4</ele>
      </trkpt>
      <trkpt lat="45.96585" lon="4.62904">
        <ele>320</ele>
        <time>2022-08-22T19:55:34Z</time>
      </trkpt>
      <trkpt lat="45.96561" lon="4.6286">
        <ele>314.6</ele>
      </trkpt>
      <trkpt lat="45.96548" lon="4.62808">
        <ele>308.5</ele>
        <time>2022-08-22T19:56:41Z</time>
      </trkpt>
      <trkpt lat="45.96502" lon="4.62767">
        <ele>301</ele>
        <time>2022-08-22T19:58:25Z</time>
      </trkpt>
      <trkpt lat="45.96479" lon="4.62758">
        <ele>302</ele>
        <time>2022-08-22T20:00:53Z</time>
      </trkpt>
      <trkpt lat="45.96471" lon="4.6278">
        <ele>302</ele>
        <time>2022-08-22T20:06:15Z</time>
      </trkpt>
      <trkpt lat="45.96467" lon="4.62781">
        <ele>302</ele>
        <time>2022-08-22T20:07:27Z</time>
      </trkpt>
      <trkpt lat="45.96464" lon="4.62804">
        <ele>301</ele>
        <time>2022-08-22T20:08:49Z</time>
      </trkpt>
      <trkpt lat="45.96467" lon="4.62814">
        <ele>301</ele>
        <time>2022-08-22T20:11:28Z</time>
      </trkpt>
      <trkpt lat="45.96465" lon="4.62827">
        <ele>300</ele>
        <time>2022-08-22T20:13:25Z</time>
      </trkpt>
      <trkpt lat="45.96433" lon="4.62806">
        <ele>303</ele>
        <time>2022-08-22T20:15:01Z</time>
      </trkpt>
      <trkpt lat="45.96429" lon="4.62815">
        <ele>304</ele>
        <time>2022-08-22T20:16:05Z</time>
      </trkpt>
      <trkpt lat="45.96464" lon="4.62851">
        <ele>300</ele>
        <time>2022-08-22T20:19:00Z</time>
      </trkpt>
      <trkpt lat="45.96458" lon="4.62889">
        <ele>301</ele>
        <time>2022-08-22T20:19:57Z</time>
      </trkpt>
      <trkpt lat="45.96428" lon="4.6297">
        <ele>291</ele>
        <time>2022-08-22T20:20:24Z</time>
      </trkpt>
      <trkpt lat="45.96415" lon="4.62976">
        <ele>291</ele>
        <time>2022-08-22T20:21:54Z</time>
      </trkpt>
      <trkpt lat="45.96392" lon="4.62969">
        <ele>293</ele>
        <time>2022-08-22T20:23:32Z</time>
      </trkpt>
      <trkpt lat="45.96391" lon="4.62926">
        <ele>299</ele>
        <time>2022-08-22T20:25:07Z</time>
      </trkpt>
      <trkpt lat="45.96401" lon="4.62865">
        <ele>304</ele>
        <time>2022-08-22T20:27:05Z</time>
      </trkpt>
      <trkpt lat="45.96283" lon="4.62794">
        <ele>318</ele>
        <time>2022-08-22T20:29:11Z</time>
      </trkpt>
      <trkpt lat="45.96272" lon="4.62885">
        <ele>310</ele>
        <time>2022-08-22T20:33:51Z</time>
      </trkpt>
      <trkpt lat="45.96239" lon="4.62941">
        <ele>316</ele>
        <time>2022-08-22T20:35:45Z</time>
      </trkpt>
      <trkpt lat="45.96204" lon="4.62975">
        <ele>324.1</ele>
      </trkpt>
      <trkpt lat="45.96166" lon="4.62998">
        <ele>326.3</ele>
        <time>2022-08-22T20:37:49Z</time>
      </trkpt>
      <trkpt lat="45.9615" lon="4.62998">
        <ele>328</ele>
      </trkpt>
      <trkpt lat="45.96115" lon="4.62993">
        <ele>328</ele>
        <time>2022-08-22T20:39:00Z</time>
      </trkpt>
      <trkpt lat="45.9611" lon="4.63114">
        <ele>325</ele>
        <time>2022-08-22T20:45:30Z</time>
      </trkpt>
      <trkpt lat="45.96109" lon="4.63123">
        <ele>325.3</ele>
      </trkpt>
      <trkpt lat="45.96068" lon="4.63166">
        <ele>324</ele>
        <time>2022-08-22T20:48:44Z</time>
      </trkpt>
      <trkpt lat="45.96009" lon="4.63212">
        <ele>324.4</ele>
        <time>2022-08-22T20:50:37Z</time>
      </trkpt>
      <trkpt lat="45.959" lon="4.63295">
        <ele>319.4</ele>
      </trkpt>
      <trkpt lat="45.95828" lon="4.63418">
        <ele>317.8</ele>
        <time>2022-08-22T20:51:43Z</time>
      </trkpt>
      <trkpt lat="45.9583" lon="4.6348">
        <ele>316.6</ele>
        <time>2022-08-22T20:53:27Z</time>
      </trkpt>
      <trkpt lat="45.95815" lon="4.63516">
        <ele>313.7</ele>
      </trkpt>
      <trkpt lat="45.95845" lon="4.63643">
        <ele>311.7</ele>
        <time>2022-08-22T20:54:56Z</time>
      </trkpt>
      <trkpt lat="45.95866" lon="4.63737">
        <ele>308.6</ele>
        <time>2022-08-22T20:57:31Z</time>
      </trkpt>
      <trkpt lat="45.95898" lon="4.63872">
        <ele>301.3</ele>
        <time>2022-08-22T20:59:04Z</time>
      </trkpt>
      <trkpt lat="45.95913" lon="4.63892">
        <ele>296</ele>
        <time>2022-08-22T21:00:38Z</time>
      </trkpt>
      <trkpt lat="45.95977" lon="4.63899">
        <ele>294</ele>
        <time>2022-08-22T21:02:21Z</time>
      </trkpt>
      <trkpt lat="45.96008" lon="4.63899">
        <ele>293.9</ele>
      </trkpt>
      <trkpt lat="45.9604" lon="4.6389">
        <ele>294</ele>
        <time>2022-08-22T21:03:35Z</time>
      </trkpt>
      <trkpt lat="45.96223" lon="4.63697">
        <ele>280</ele>
        <time>2022-08-22T21:05:18Z</time>
      </trkpt>
      <trkpt lat="45.962" lon="4.63836">
        <ele>270</ele>
        <time>2022-08-22T21:06:41Z</time>
      </trkpt>
      <trkpt lat="45.96204" lon="4.63838">
        <ele>270.8</ele>
      </trkpt>
      <trkpt lat="45.96256" lon="4.6377">
        <ele>273</ele>
        <time>2022-08-22T21:09:37Z</time>
      </trkpt>
      <trkpt lat="45.96263" lon="4.63721">
        <ele>276</ele>
        <time>2022-08-22T21:10:42Z</time>
      </trkpt>
      <trkpt lat="45.96379" lon="4.6358">
        <ele>305</ele>
        <time>2022-08-22T21:13:07Z</time>
      </trkpt>
      <trkpt lat="45.96439" lon="4.63559">
        <ele>316</ele>
        <time>2022-08-22T21:15:21Z</time>
      </trkpt>
      <trkpt lat="45.96483" lon="4.63568">
        <ele>320</ele>
        <time>2022-08-22T21:16:12Z</time>
      </trkpt>
      <trkpt lat="45.96517" lon="4.63636">
        <ele>320</ele>
        <time>2022-08-22T21:17:26Z</time>
      </trkpt>
      <trkpt lat="45.96518" lon="4.63759">
        <ele>315.1</ele>
        <time>2022-08-22T21:18:26Z</time>
      </trkpt>
      <trkpt lat="45.9656" lon="4.6386">
        <ele>308</ele>
        <time>2022-08-22T21:18:53Z</time>
      </trkpt>
      <trkpt lat="45.96661" lon="4.63969">
        <ele>297</ele>
        <time>2022-08-22T21:19:22Z</time>
      </trkpt>
      <trkpt lat="45.96675" lon="4.641">
        <ele>294</ele>
        <time>2022-08-22T21:20:36Z</time>
      </trkpt>
      <trkpt lat="45.96701" lon="4.64212">
        <ele>287</ele>
        <time>2022-08-22T21:25:11Z</time>
      </trkpt>
      <trkpt lat="45.96755" lon="4.64315">
        <ele>286</ele>
        <time>2022-08-22T21:27:47Z</time>
      </trkpt>
      <trkpt lat="45.96791" lon="4.64392">
        <ele>280</ele>
        <time>2022-08-22T21:31:03Z</time>
      </trkpt>
      <trkpt lat="45.96871" lon="4.64449">
        <ele>272</ele>
        <time>2022-08-22T21:31:42Z</time>
      </trkpt>
      <trkpt lat="45.96917" lon="4.64451">
        <ele>278</ele>
        <time>2022-08-22T21:32:15Z</time>
      </trkpt>
      <trkpt lat="45.96942" lon="4.64473">
        <ele>281</ele>
        <time>2022-08-22T21:34:16Z</time>
      </trkpt>
      <trkpt lat="45.96965" lon="4.64536">
        <ele>282</ele>
        <time>2022-08-22T21:38:12Z</time>
      </trkpt>
      <trkpt lat="45.96981" lon="4.64598">
        <ele>278</ele>
        <time>2022-08-22T21:39:21Z</time>
      </trkpt>
      <trkpt lat="45.9703" lon="4.6467">
        <ele>279</ele>
        <time>2022-08-22T21:42:41Z</time>
      </trkpt>
      <trkpt lat="45.97035" lon="4.64853">
        <ele>274</ele>
        <time>2022-08-22T21:50:11Z</time>
      </trkpt>
      <trkpt lat="45.97046" lon="4.64908">
        <ele>272</ele>
      </trkpt>
      <trkpt lat="45.97077" lon="4.6501">
        <ele>268</ele>
        <time>2022-08-22T21:54:15Z</time>
      </trkpt>
      <trkpt lat="45.97036" lon="4.65036">
        <ele>260</ele>
        <time>2022-08-22T21:55:20Z</time>
      </trkpt>
      <trkpt lat="45.96949" lon="4.65066">
        <ele>259</ele>
      </trkpt>
      <trkpt lat="45.96921" lon="4.65039">
        <ele>259</ele>
      </trkpt>
      <trkpt lat="45.96912" lon="4.65018">
        <ele>259</ele>
      </trkpt>
      <trkpt lat="45.96895" lon="4.65005">
        <ele>260</ele>
      </trkpt>
      <trkpt lat="45.96857" lon="4.64997">
        <ele>261</ele>
      </trkpt>
      <trkpt lat="45.96743" lon="4.64994">
        <ele>276</ele>
      </trkpt>
      <trkpt lat="45.96786" lon="4.6518">
        <ele>273</ele>
      </trkpt>
      <trkpt lat="45.96763" lon="4.65424">
        <ele>261</ele>
      </trkpt>
      <trkpt lat="45.96759" lon="4.65452">
        <ele>261</ele>
      </trkpt>
      <trkpt lat="45.96766" lon="4.65472">
        <ele>259</ele>
      </trkpt>
      <trkpt lat="45.9678" lon="4.6551">
        <ele>258</ele>
      </trkpt>
      <trkpt lat="45.96742" lon="4.65623">
        <ele>260</ele>
      </trkpt>
      <trkpt lat="45.96691" lon="4.65741">
        <ele>265.7</ele>
      </trkpt>
      <trkpt lat="45.96648" lon="4.65862">
        <ele>265.6</ele>
      </trkpt>
      <trkpt lat="45.96672" lon="4.6595">
        <ele>260</ele>
      </trkpt>
      <trkpt lat="45.96676" lon="4.66076">
        <ele>251.6</ele>
      </trkpt>
      <trkpt lat="45.96689" lon="4.662">
        <ele>245</ele>
      </trkpt>
      <trkpt lat="45.96977" lon="4.66207">
        <ele>250.7</ele>
      </trkpt>
      <trkpt lat="45.96988" lon="4.6622">
        <ele>250.7</ele>
      </trkpt>
      <trkpt lat="45.96962" lon="4.66403">
        <ele>244.9</ele>
      </trkpt>
      <trkpt lat="45.96959" lon="4.66403">
        <ele>247</ele>
      </trkpt>
      <trkpt lat="45.9703" lon="4.66427">
        <ele>242.5</ele>
      </trkpt>
      <trkpt lat="45.97085" lon="4.66389">
        <ele>243</ele>
      </trkpt>
    </trkseg>
  </trk>
</gpx>